createdAt,value
2019-04-21T00:00:13.253Z,12.30
2019-04-21T00:01:12.490Z,12.30
2019-04-21T00:02:08.948Z,12.40
2019-04-21T00:03:15.198Z,13.20
2019-04-21T00:04:19.890Z,12.40
2019-04-21T00:05:33.459Z,12.50
2019-04-21T00:06:30.152Z,12.80
2019-04-21T00:07:26.479Z,12.30
2019-04-21T00:08:39.248Z,13.20
2019-04-21T00:09:34.574Z,12.80
2019-04-21T00:10:38.513Z,12.60
2019-04-21T00:11:29.586Z,13.50
2019-04-21T00:12:30.637Z,13.80
2019-04-21T00:13:23.358Z,13.90
2019-04-21T00:14:23.642Z,13.30
2019-04-21T00:15:20.464Z,13.50
2019-04-21T00:16:12.586Z,13.90
2019-04-21T00:17:15.726Z,13.40
2019-04-21T00:18:11.066Z,13.10
2019-04-21T00:19:14.504Z,13.50
2019-04-21T00:20:20.426Z,13.40
2019-04-21T00:21:22.549Z,13.60
2019-04-21T00:22:24.723Z,13.90
2019-04-21T00:23:22.533Z,13.80
2019-04-21T00:24:24.226Z,14.20
2019-04-21T00:25:25.267Z,13.90
2019-04-21T00:26:29.817Z,13.70
2019-04-21T00:27:24.518Z,13.90
2019-04-21T00:28:36.708Z,14.00
2019-04-21T00:29:36.632Z,14.80
2019-04-21T00:30:34.158Z,14.00
2019-04-21T00:31:24.661Z,14.40
2019-04-21T00:32:21.828Z,14.10
2019-04-21T00:33:17.564Z,14.10
2019-04-21T00:34:09.577Z,14.20
2019-04-21T00:35:14.134Z,14.50
2019-04-21T00:36:16.695Z,14.50
2019-04-21T00:37:22.488Z,14.20
2019-04-21T00:38:32.390Z,15.30
2019-04-21T00:39:36.947Z,14.40
2019-04-21T00:40:35.218Z,14.80
2019-04-21T00:41:29.871Z,14.40
2019-04-21T00:42:29.226Z,15.10
2019-04-21T00:43:28.276Z,14.60
2019-04-21T00:44:23.156Z,14.60
2019-04-21T00:45:23.603Z,15.20
2019-04-21T00:46:27.953Z,15.00
2019-04-21T00:47:30.422Z,14.40
2019-04-21T00:48:32.941Z,15.40
2019-04-21T00:49:23.250Z,14.80
2019-04-21T00:50:34.065Z,15.10
2019-04-21T00:51:40.258Z,15.30
2019-04-21T00:52:49.196Z,15.40
2019-04-21T00:53:38.460Z,16.00
2019-04-21T00:54:34.343Z,14.80
2019-04-21T00:56:34.011Z,15.60
2019-04-21T00:58:33.275Z,15.50
2019-04-21T00:59:34.947Z,15.90
2019-04-21T01:00:29.010Z,16.60
2019-04-21T01:01:35.960Z,15.70
2019-04-21T01:02:33.048Z,15.80
2019-04-21T01:03:32.749Z,16.20
2019-04-21T01:04:30.468Z,16.10
2019-04-21T01:05:35.224Z,16.10
2019-04-21T01:06:29.159Z,16.60
2019-04-21T01:07:32.001Z,16.40
2019-04-21T01:08:31.587Z,16.80
2019-04-21T01:09:27.652Z,16.60
2019-04-21T01:10:21.005Z,16.70
2019-04-21T01:11:42.194Z,17.20
2019-04-21T01:12:33.473Z,16.80
2019-04-21T01:13:36.262Z,17.00
2019-04-21T01:14:34.544Z,17.10
2019-04-21T01:15:37.434Z,16.40
2019-04-21T01:16:35.021Z,17.20
2019-04-21T01:17:30.568Z,16.70
2019-04-21T01:18:32.624Z,16.80
2019-04-21T01:19:25.154Z,16.60
2019-04-21T01:20:16.738Z,16.40
2019-04-21T01:21:14.446Z,17.20
2019-04-21T01:23:10.454Z,17.10
2019-04-21T01:24:16.956Z,17.30
2019-04-21T01:25:17.514Z,17.10
2019-04-21T01:26:22.878Z,17.20
2019-04-21T01:27:21.672Z,18.10
2019-04-21T01:28:25.822Z,17.60
2019-04-21T01:29:34.313Z,17.40
2019-04-21T01:30:28.556Z,17.40
2019-04-21T01:31:22.966Z,17.40
2019-04-21T01:32:29.538Z,17.00
2019-04-21T01:33:34.923Z,17.50
2019-04-21T01:34:33.222Z,18.40
2019-04-21T01:35:26.977Z,18.00
2019-04-21T01:36:26.078Z,18.90
2019-04-21T01:37:38.509Z,17.60
2019-04-21T01:38:36.827Z,18.00
2019-04-21T01:39:35.011Z,17.90
2019-04-21T01:41:32.899Z,18.40
2019-04-21T01:42:28.178Z,18.40
2019-04-21T01:43:27.742Z,18.10
2019-04-21T01:44:39.029Z,18.60
2019-04-21T01:45:27.722Z,18.00
2019-04-21T01:46:25.763Z,18.70
2019-04-21T01:47:26.340Z,19.20
2019-04-21T01:48:28.969Z,19.10
2019-04-21T01:49:21.950Z,19.40
2019-04-21T01:50:30.079Z,19.30
2019-04-21T01:51:23.508Z,19.00
2019-04-21T01:52:40.832Z,19.50
2019-04-21T01:53:30.598Z,19.20
2019-04-21T01:54:31.740Z,18.40
2019-04-21T01:55:31.869Z,18.80
2019-04-21T01:56:30.503Z,19.60
2019-04-21T01:57:24.372Z,19.00
2019-04-21T01:58:19.348Z,18.20
2019-04-21T01:59:24.538Z,18.60
2019-04-21T02:00:28.149Z,18.80
2019-04-21T02:01:29.751Z,18.70
2019-04-21T02:02:32.558Z,19.10
2019-04-21T02:03:47.036Z,18.70
2019-04-21T02:04:37.359Z,18.50
2019-04-21T02:05:34.574Z,18.00
2019-04-21T02:06:36.244Z,18.80
2019-04-21T02:07:27.177Z,19.00
2019-04-21T02:08:27.437Z,19.40
2019-04-21T02:09:29.315Z,18.50
2019-04-21T02:10:34.554Z,17.90
2019-04-21T02:11:31.534Z,18.40
2019-04-21T02:12:33.431Z,19.10
2019-04-21T02:13:23.241Z,18.40
2019-04-21T02:14:41.028Z,19.20
2019-04-21T02:15:32.997Z,19.30
2019-04-21T02:16:28.941Z,19.20
2019-04-21T02:17:27.988Z,19.00
2019-04-21T02:18:31.614Z,18.90
2019-04-21T02:19:23.594Z,19.30
2019-04-21T02:20:22.612Z,19.40
2019-04-21T02:21:23.310Z,18.90
2019-04-21T02:22:43.102Z,18.70
2019-04-21T02:23:43.970Z,19.50
2019-04-21T02:24:37.710Z,19.70
2019-04-21T02:25:31.791Z,20.50
2019-04-21T02:26:27.431Z,19.00
2019-04-21T02:27:29.838Z,19.40
2019-04-21T02:28:40.456Z,19.10
2019-04-21T02:29:33.097Z,19.60
2019-04-21T02:30:55.043Z,19.60
2019-04-21T02:31:57.074Z,19.30
2019-04-21T02:32:43.569Z,19.80
2019-04-21T02:34:42.995Z,19.30
2019-04-21T02:35:53.494Z,20.00
2019-04-21T02:37:44.592Z,19.80
2019-04-21T02:39:46.725Z,19.80
2019-04-21T02:40:47.296Z,19.60
2019-04-21T02:41:41.717Z,19.70
2019-04-21T02:43:39.942Z,20.40
2019-04-21T02:44:46.742Z,20.10
2019-04-21T02:45:56.206Z,20.20
2019-04-21T02:46:54.670Z,20.70
2019-04-21T02:47:45.839Z,20.80
2019-04-21T02:48:43.591Z,21.40
2019-04-21T02:50:00.238Z,20.70
2019-04-21T02:50:39.797Z,20.50
2019-04-21T02:52:50.064Z,22.10
2019-04-21T02:54:03.793Z,20.80
2019-04-21T02:55:36.802Z,19.80
2019-04-21T02:57:41.343Z,19.50
2019-04-21T02:58:42.160Z,20.60
2019-04-21T02:59:42.282Z,19.90
2019-04-21T03:00:36.549Z,21.60
2019-04-21T03:01:43.954Z,20.10
2019-04-21T03:03:36.340Z,21.00
2019-04-21T03:05:45.435Z,20.80
2019-04-21T03:06:39.338Z,21.20
2019-04-21T03:07:36.637Z,20.80
2019-04-21T03:08:42.791Z,20.60
2019-04-21T03:11:36.418Z,20.60
2019-04-21T03:12:52.996Z,20.70
2019-04-21T03:13:41.637Z,21.40
2019-04-21T03:16:31.136Z,20.80
2019-04-21T03:18:39.957Z,21.20
2019-04-21T03:19:45.736Z,21.00
2019-04-21T03:20:42.161Z,21.50
2019-04-21T03:21:45.623Z,21.90
2019-04-21T03:22:37.484Z,21.20
2019-04-21T03:23:54.850Z,21.70
2019-04-21T03:24:54.099Z,21.70
2019-04-21T03:25:52.298Z,21.50
2019-04-21T03:27:01.920Z,21.50
2019-04-21T03:28:37.082Z,21.80
2019-04-21T03:31:05.945Z,21.70
2019-04-21T03:38:51.683Z,21.80
2019-04-21T03:40:32.279Z,22.50
2019-04-21T03:41:39.676Z,22.20
2019-04-21T03:43:43.285Z,23.50
2019-04-21T03:44:37.434Z,23.00
2019-04-21T03:45:39.297Z,22.30
2019-04-21T03:47:01.713Z,23.20
2019-04-21T03:47:38.372Z,23.30
2019-04-21T03:48:55.027Z,23.40
2019-04-21T03:50:33.776Z,23.10
2019-04-21T03:51:35.862Z,23.00
2019-04-21T03:53:43.802Z,23.20
2019-04-21T03:54:49.236Z,22.80
2019-04-21T03:55:58.677Z,22.20
2019-04-21T03:58:07.158Z,23.10
2019-04-21T03:59:38.553Z,23.10
2019-04-21T04:01:44.396Z,22.50
2019-04-21T04:02:45.577Z,22.50
2019-04-21T04:04:34.211Z,23.10
2019-04-21T04:05:51.948Z,23.40
2019-04-21T04:06:48.161Z,23.50
2019-04-21T04:10:58.726Z,23.90
2019-04-21T04:12:44.338Z,23.90
2019-04-21T04:13:53.316Z,23.50
2019-04-21T04:14:47.466Z,22.80
2019-04-21T04:15:45.649Z,23.90
2019-04-21T04:16:37.845Z,23.10
2019-04-21T04:17:32.550Z,24.20
2019-04-21T04:18:46.603Z,23.60
2019-04-21T04:19:42.123Z,23.70
2019-04-21T04:20:39.964Z,23.70
2019-04-21T04:21:42.041Z,23.90
2019-04-21T04:22:45.513Z,23.20
2019-04-21T04:23:47.286Z,24.10
2019-04-21T04:24:40.861Z,22.80
2019-04-21T04:25:27.899Z,23.30
2019-04-21T04:26:39.522Z,24.20
2019-04-21T04:27:59.845Z,23.30
2019-04-21T04:29:35.645Z,23.30
2019-04-21T04:30:46.245Z,23.10
2019-04-21T04:31:37.565Z,23.30
2019-04-21T04:32:34.786Z,22.90
2019-04-21T04:33:58.092Z,23.70
2019-04-21T04:37:38.794Z,23.50
2019-04-21T04:38:39.259Z,24.20
2019-04-21T04:40:49.224Z,23.70
2019-04-21T04:42:46.228Z,24.10
2019-04-21T04:43:42.168Z,23.60
2019-04-21T04:44:59.663Z,24.00
2019-04-21T04:46:52.804Z,23.80
2019-04-21T04:47:39.254Z,24.60
2019-04-21T04:48:37.564Z,23.80
2019-04-21T04:49:48.045Z,23.40
2019-04-21T04:54:46.942Z,24.10
2019-04-21T04:55:42.896Z,23.90
2019-04-21T04:56:38.311Z,24.10
2019-04-21T04:59:20.074Z,23.60
2019-04-21T05:02:48.852Z,23.60
2019-04-21T05:04:45.771Z,23.70
2019-04-21T05:05:38.112Z,23.10
2019-04-21T05:07:44.354Z,23.90
2019-04-21T05:08:54.372Z,23.60
2019-04-21T05:09:41.238Z,24.20
2019-04-21T05:10:47.667Z,24.00
2019-04-21T05:12:53.253Z,23.30
2019-04-21T05:13:38.719Z,22.80
2019-04-21T05:14:41.116Z,23.00
2019-04-21T05:15:42.515Z,23.20
2019-04-21T05:18:44.943Z,23.50
2019-04-21T05:19:30.589Z,23.70
2019-04-21T05:20:29.652Z,23.20
2019-04-21T05:22:31.449Z,23.60
2019-04-21T05:23:33.383Z,24.40
2019-04-21T05:24:23.035Z,22.80
2019-04-21T05:25:23.067Z,23.30
2019-04-21T05:26:17.142Z,22.40
2019-04-21T05:27:23.475Z,23.90
2019-04-21T05:28:21.906Z,23.80
2019-04-21T05:29:22.759Z,23.80
2019-04-21T05:31:34.376Z,24.00
2019-04-21T05:32:38.265Z,23.30
2019-04-21T05:33:34.406Z,23.60
2019-04-21T05:34:27.410Z,23.10
2019-04-21T05:35:29.613Z,24.60
2019-04-21T05:36:29.563Z,24.60
2019-04-21T05:37:26.839Z,23.90
2019-04-21T05:38:27.197Z,25.40
2019-04-21T05:39:23.175Z,24.20
2019-04-21T05:40:24.911Z,24.50
2019-04-21T05:41:18.084Z,24.40
2019-04-21T05:42:23.833Z,23.60
2019-04-21T05:44:35.414Z,23.70
2019-04-21T05:45:34.826Z,24.80
2019-04-21T05:46:32.081Z,24.30
2019-04-21T05:47:35.389Z,24.20
2019-04-21T05:48:29.726Z,24.30
2019-04-21T05:49:26.469Z,26.00
2019-04-21T05:50:23.311Z,23.10
2019-04-21T05:51:25.868Z,23.60
2019-04-21T05:52:22.558Z,24.40
2019-04-21T05:53:29.555Z,23.60
2019-04-21T05:54:29.605Z,25.10
2019-04-21T05:55:34.299Z,23.40
2019-04-21T05:56:32.626Z,23.10
2019-04-21T05:57:29.142Z,23.60
2019-04-21T05:58:29.947Z,23.10
2019-04-21T05:59:26.638Z,23.50
2019-04-21T06:00:39.406Z,23.60
2019-04-21T06:01:35.866Z,23.20
2019-04-21T06:02:30.701Z,24.30
2019-04-21T06:03:32.443Z,23.10
2019-04-21T06:04:54.861Z,23.10
2019-04-21T06:05:37.586Z,23.70
2019-04-21T06:07:28.751Z,22.80
2019-04-21T06:09:32.511Z,23.00
2019-04-21T06:10:28.041Z,22.10
2019-04-21T06:11:47.874Z,22.80
2019-04-21T06:12:31.563Z,21.70
2019-04-21T06:13:34.817Z,22.70
2019-04-21T06:14:30.835Z,22.70
2019-04-21T06:15:30.209Z,22.60
2019-04-21T06:16:38.739Z,22.30
2019-04-21T06:17:35.091Z,22.90
2019-04-21T06:18:36.399Z,21.40
2019-04-21T06:19:39.789Z,22.80
2019-04-21T06:20:27.098Z,22.00
2019-04-21T06:21:27.981Z,22.10
2019-04-21T06:22:23.401Z,22.70
2019-04-21T06:23:30.142Z,21.60
2019-04-21T06:24:39.202Z,22.50
2019-04-21T06:26:59.225Z,21.80
2019-04-21T06:28:38.610Z,21.70
2019-04-21T06:29:30.996Z,21.60
2019-04-21T06:30:33.362Z,22.80
2019-04-21T06:31:58.898Z,21.50
2019-04-21T06:33:44.772Z,22.00
2019-04-21T06:34:43.664Z,21.70
2019-04-21T06:35:41.522Z,21.90
2019-04-21T06:36:39.014Z,21.80
2019-04-21T06:38:36.105Z,20.70
2019-04-21T06:39:30.704Z,21.90
2019-04-21T06:40:51.159Z,20.80
2019-04-21T06:41:32.491Z,21.30
2019-04-21T06:42:26.685Z,22.10
2019-04-21T06:43:33.251Z,21.20
2019-04-21T06:44:49.059Z,20.50
2019-04-21T06:45:49.464Z,20.40
2019-04-21T06:46:34.914Z,21.30
2019-04-21T06:47:36.120Z,20.60
2019-04-21T06:48:33.645Z,20.20
2019-04-21T06:49:27.459Z,20.50
2019-04-21T06:50:30.192Z,20.50
2019-04-21T06:53:42.532Z,20.20
2019-04-21T06:54:27.812Z,19.70
2019-04-21T06:55:27.871Z,19.80
2019-04-21T06:56:37.589Z,19.50
2019-04-21T06:57:28.729Z,18.90
2019-04-21T06:58:25.029Z,19.90
2019-04-21T06:59:30.053Z,19.70
2019-04-21T07:00:27.793Z,19.80
2019-04-21T07:01:31.274Z,19.90
2019-04-21T07:03:29.777Z,19.40
2019-04-21T07:04:29.551Z,19.60
2019-04-21T07:05:34.620Z,19.60
2019-04-21T07:06:29.518Z,18.70
2019-04-21T07:07:27.919Z,19.00
2019-04-21T07:10:26.539Z,18.20
2019-04-21T07:11:26.953Z,18.60
2019-04-21T07:12:26.314Z,18.40
2019-04-21T07:13:26.387Z,19.20
2019-04-21T07:15:30.820Z,18.00
2019-04-21T07:16:31.742Z,17.50
2019-04-21T07:17:30.646Z,17.10
2019-04-21T07:18:27.542Z,16.60
2019-04-21T07:20:31.455Z,16.30
2019-04-21T07:21:32.542Z,16.50
2019-04-21T07:22:30.601Z,16.40
2019-04-21T07:23:32.341Z,15.90
2019-04-21T07:25:28.261Z,16.90
2019-04-21T07:26:32.908Z,16.00
2019-04-21T07:27:32.996Z,17.00
2019-04-21T07:28:36.257Z,16.30
2019-04-21T07:29:32.538Z,16.40
2019-04-21T07:30:34.088Z,15.70
2019-04-21T07:31:33.116Z,15.50
2019-04-21T07:32:29.550Z,16.10
2019-04-21T07:33:50.899Z,16.10
2019-04-21T07:35:25.319Z,16.40
2019-04-21T07:36:38.477Z,16.40
2019-04-21T07:37:23.861Z,16.40
2019-04-21T07:38:31.850Z,16.10
2019-04-21T07:39:22.367Z,17.10
2019-04-21T07:40:22.263Z,17.70
2019-04-21T07:41:18.328Z,17.80
2019-04-21T07:42:19.259Z,17.30
2019-04-21T07:43:22.194Z,17.70
2019-04-21T07:44:25.771Z,17.50
2019-04-21T07:45:16.582Z,17.40
2019-04-21T07:46:19.827Z,17.30
2019-04-21T07:47:26.432Z,17.20
2019-04-21T07:48:24.587Z,17.50
2019-04-21T07:49:25.258Z,17.70
2019-04-21T07:50:26.393Z,16.80
2019-04-21T07:51:25.477Z,17.70
2019-04-21T07:52:28.295Z,17.10
2019-04-21T07:53:34.595Z,17.70
2019-04-21T07:54:33.642Z,17.00
2019-04-21T07:56:09.484Z,17.40
2019-04-21T07:57:19.059Z,17.90
2019-04-21T07:58:31.754Z,16.90
2019-04-21T07:59:40.879Z,16.80
2019-04-21T08:00:29.622Z,16.70
2019-04-21T08:01:26.887Z,17.00
2019-04-21T08:02:22.161Z,17.20
2019-04-21T08:03:30.026Z,17.30
2019-04-21T08:04:42.361Z,17.40
2019-04-21T08:05:24.871Z,16.90
2019-04-21T08:06:28.370Z,16.70
2019-04-21T08:07:30.788Z,16.50
2019-04-21T08:08:20.792Z,16.90
2019-04-21T08:10:23.187Z,17.20
2019-04-21T08:11:19.696Z,15.60
2019-04-21T08:12:20.075Z,16.10
2019-04-21T08:13:34.636Z,16.80
2019-04-21T08:14:33.395Z,16.60
2019-04-21T08:15:40.078Z,15.70
2019-04-21T08:16:24.408Z,16.00
2019-04-21T08:17:24.607Z,16.50
2019-04-21T08:18:27.964Z,16.40
2019-04-21T08:19:26.809Z,15.50
2019-04-21T08:20:24.401Z,16.40
2019-04-21T08:21:29.944Z,16.10
2019-04-21T08:22:30.738Z,15.90
2019-04-21T08:23:29.319Z,16.30
2019-04-21T08:25:27.246Z,16.20
2019-04-21T08:26:27.358Z,15.90
2019-04-21T08:27:25.785Z,16.20
2019-04-21T08:28:26.458Z,16.50
2019-04-21T08:29:37.967Z,16.60
2019-04-21T08:30:28.888Z,16.30
2019-04-21T08:31:34.029Z,16.30
2019-04-21T08:32:26.523Z,16.30
2019-04-21T08:33:32.006Z,16.60
2019-04-21T08:34:30.509Z,16.10
2019-04-21T08:36:28.127Z,16.90
2019-04-21T08:37:27.482Z,16.30
2019-04-21T08:38:30.218Z,17.40
2019-04-21T08:39:33.149Z,16.80
2019-04-21T08:41:27.046Z,17.30
2019-04-21T08:42:25.385Z,16.70
2019-04-21T08:43:40.000Z,16.70
2019-04-21T08:44:25.713Z,16.50
2019-04-21T08:45:33.292Z,16.80
2019-04-21T08:46:25.376Z,17.20
2019-04-21T08:47:30.037Z,17.10
2019-04-21T08:48:25.396Z,17.40
2019-04-21T08:49:22.230Z,17.70
2019-04-21T08:51:47.330Z,17.10
2019-04-21T08:52:44.511Z,18.10
2019-04-21T08:53:24.709Z,17.10
2019-04-21T08:55:28.808Z,17.00
2019-04-21T08:56:34.365Z,17.00
2019-04-21T08:57:35.644Z,18.20
2019-04-21T08:58:30.511Z,17.70
2019-04-21T08:59:24.099Z,17.90
2019-04-21T09:00:26.332Z,16.90
2019-04-21T09:01:33.004Z,17.40
2019-04-21T09:02:29.778Z,17.60
2019-04-21T09:03:21.329Z,17.40
2019-04-21T09:04:23.420Z,16.50
2019-04-21T09:05:26.566Z,17.40
2019-04-21T09:06:34.025Z,17.70
2019-04-21T09:07:27.932Z,17.00
2019-04-21T09:08:28.810Z,17.50
2019-04-21T09:09:24.147Z,17.00
2019-04-21T09:10:26.929Z,17.20
2019-04-21T09:11:16.317Z,17.50
2019-04-21T09:12:21.191Z,16.40
2019-04-21T09:13:25.128Z,16.50
2019-04-21T09:14:24.332Z,17.40
2019-04-21T09:15:21.589Z,16.40
2019-04-21T09:16:20.833Z,16.70
2019-04-21T09:17:14.968Z,17.00
2019-04-21T09:18:19.819Z,16.80
2019-04-21T09:19:34.876Z,16.40
2019-04-21T09:20:28.279Z,16.70
2019-04-21T09:21:28.561Z,16.80
2019-04-21T09:22:24.366Z,16.20
2019-04-21T09:23:24.194Z,17.10
2019-04-21T09:24:24.669Z,17.10
2019-04-21T09:25:28.581Z,17.60
2019-04-21T09:26:28.268Z,16.20
2019-04-21T09:27:20.709Z,16.80
2019-04-21T09:28:19.879Z,16.60
2019-04-21T09:29:17.211Z,16.80
2019-04-21T09:30:06.539Z,16.90
2019-04-21T09:31:06.377Z,16.30
2019-04-21T09:32:04.913Z,16.20
2019-04-21T09:33:05.544Z,15.60
2019-04-21T09:34:06.433Z,15.90
2019-04-21T09:36:07.906Z,16.60
2019-04-21T09:37:19.085Z,17.50
2019-04-21T09:38:18.436Z,16.20
2019-04-21T09:39:10.836Z,17.00
2019-04-21T09:40:04.932Z,15.80
2019-04-21T09:41:02.765Z,15.90
2019-04-21T09:42:04.616Z,15.30
2019-04-21T09:43:07.716Z,15.50
2019-04-21T09:44:08.727Z,14.90
2019-04-21T09:45:06.207Z,15.90
2019-04-21T09:46:03.787Z,15.60
2019-04-21T09:47:05.136Z,15.90
2019-04-21T09:48:07.931Z,16.60
2019-04-21T09:49:06.244Z,16.70
2019-04-21T09:50:05.191Z,16.60
2019-04-21T09:51:02.493Z,15.50
2019-04-21T09:52:02.516Z,15.60
2019-04-21T09:53:13.917Z,16.20
2019-04-21T09:54:08.766Z,16.20
2019-04-21T09:55:10.080Z,15.90
2019-04-21T09:56:08.629Z,15.90
2019-04-21T09:57:08.917Z,15.40
2019-04-21T09:58:13.458Z,15.40
2019-04-21T09:59:13.258Z,15.40
2019-04-21T10:00:10.042Z,15.50
2019-04-21T10:01:11.834Z,15.60
2019-04-21T10:02:13.610Z,15.30
2019-04-21T10:03:08.192Z,14.60
2019-04-21T10:04:05.270Z,15.30
2019-04-21T10:05:02.383Z,14.80
2019-04-21T10:06:02.339Z,14.20
2019-04-21T10:07:02.475Z,14.50
2019-04-21T10:08:03.617Z,14.60
2019-04-21T10:09:04.765Z,15.70
2019-04-21T10:10:03.695Z,15.80
2019-04-21T10:11:03.253Z,16.20
2019-04-21T10:12:03.111Z,15.90
2019-04-21T10:13:02.882Z,16.10
2019-04-21T10:14:03.305Z,15.10
2019-04-21T10:15:02.322Z,15.30
2019-04-21T10:16:03.092Z,15.10
2019-04-21T10:17:03.085Z,14.50
2019-04-21T10:18:02.716Z,15.40
2019-04-21T10:19:02.558Z,14.50
2019-04-21T10:20:03.199Z,15.20
2019-04-21T10:21:03.207Z,14.90
2019-04-21T10:22:03.768Z,15.70
2019-04-21T10:24:04.147Z,15.40
2019-04-21T10:25:02.956Z,15.80
2019-04-21T10:26:02.123Z,15.10
2019-04-21T10:27:04.129Z,15.80
2019-04-21T10:28:03.304Z,14.50
2019-04-21T10:29:08.133Z,14.50
2019-04-21T10:30:03.681Z,13.90
2019-04-21T10:31:02.694Z,13.30
2019-04-21T10:32:02.072Z,13.90
2019-04-21T10:33:02.058Z,13.30
2019-04-21T10:34:03.154Z,14.20
2019-04-21T10:35:03.191Z,13.80
2019-04-21T10:36:02.047Z,13.60
2019-04-21T10:37:02.836Z,13.30
2019-04-21T10:38:14.864Z,12.80
2019-04-21T10:39:04.210Z,12.10
2019-04-21T10:40:03.387Z,11.70
2019-04-21T10:41:03.385Z,12.60
2019-04-21T10:42:01.954Z,12.20
2019-04-21T10:43:01.943Z,11.40
2019-04-21T10:44:03.138Z,11.80
2019-04-21T10:45:03.229Z,11.10
2019-04-21T10:46:01.903Z,12.50
2019-04-21T10:47:02.637Z,11.70
2019-04-21T10:48:03.059Z,10.90
2019-04-21T10:49:01.879Z,10.90
2019-04-21T10:50:02.807Z,11.40
2019-04-21T10:51:03.146Z,11.50
2019-04-21T10:52:01.868Z,11.10
2019-04-21T10:53:02.947Z,11.50
2019-04-21T10:54:02.046Z,10.80
2019-04-21T10:55:19.436Z,11.80
2019-04-21T10:56:13.549Z,11.70
2019-04-21T10:57:04.184Z,11.70
2019-04-21T10:58:02.315Z,11.80
2019-04-21T10:59:02.520Z,10.80
2019-04-21T11:00:01.752Z,11.00
2019-04-21T11:01:02.039Z,11.30
2019-04-21T11:02:03.066Z,11.80
2019-04-21T11:03:02.274Z,11.40
2019-04-21T11:04:02.733Z,11.60
2019-04-21T11:06:03.217Z,11.20
2019-04-21T11:07:07.047Z,10.80
2019-04-21T11:08:13.537Z,11.40
2019-04-21T11:09:04.826Z,12.00
2019-04-21T11:10:02.467Z,11.90
2019-04-21T11:11:01.763Z,11.10
2019-04-21T11:12:02.000Z,11.60
2019-04-21T11:13:02.759Z,10.80
2019-04-21T11:14:02.463Z,10.70
2019-04-21T11:15:01.593Z,10.30
2019-04-21T11:16:01.585Z,11.20
2019-04-21T11:17:01.594Z,11.40
2019-04-21T11:18:01.857Z,11.30
2019-04-21T11:19:02.030Z,10.90
2019-04-21T11:20:01.537Z,11.40
2019-04-21T11:21:02.852Z,11.90
2019-04-21T11:22:02.990Z,10.40
2019-04-21T11:23:01.860Z,10.30
2019-04-21T11:24:01.900Z,11.00
2019-04-21T11:25:03.028Z,10.10
2019-04-21T11:26:02.256Z,10.50
2019-04-21T11:27:01.826Z,9.70
2019-04-21T11:28:02.877Z,9.70
2019-04-21T11:29:01.436Z,9.00
2019-04-21T11:30:02.356Z,8.70
2019-04-21T11:31:02.685Z,8.70
2019-04-21T11:32:01.455Z,8.40
2019-04-21T11:33:01.496Z,7.90
2019-04-21T11:34:01.391Z,8.70
2019-04-21T11:35:01.362Z,8.90
2019-04-21T11:36:01.513Z,10.50
2019-04-21T11:37:01.914Z,10.20
2019-04-21T11:38:08.408Z,10.40
2019-04-21T11:39:16.915Z,10.30
2019-04-21T11:40:08.622Z,9.30
2019-04-21T11:41:03.418Z,9.50
2019-04-21T11:42:01.710Z,9.00
2019-04-21T11:43:01.979Z,8.80
2019-04-21T11:44:01.487Z,9.20
2019-04-21T11:45:01.278Z,8.80
2019-04-21T11:46:02.529Z,8.60
2019-04-21T11:47:02.563Z,9.20
2019-04-21T11:48:01.225Z,8.70
2019-04-21T11:49:02.368Z,8.80
2019-04-21T11:50:01.207Z,8.90
2019-04-21T11:51:01.411Z,8.50
2019-04-21T11:52:01.210Z,8.50
2019-04-21T11:53:01.206Z,8.20
2019-04-21T11:54:01.239Z,8.20
2019-04-21T11:55:01.153Z,8.10
2019-04-21T11:56:01.138Z,9.30
2019-04-21T11:57:07.957Z,8.50
2019-04-21T11:58:03.467Z,8.00
2019-04-21T11:59:01.694Z,7.90
2019-04-21T12:00:01.769Z,8.20
2019-04-21T12:01:01.097Z,7.90
2019-04-21T12:02:01.556Z,7.80
2019-04-21T12:03:01.622Z,8.70
2019-04-21T12:04:01.057Z,9.20
2019-04-21T12:05:01.388Z,9.30
2019-04-21T12:06:01.585Z,8.90
2019-04-21T12:07:01.895Z,8.10
2019-04-21T12:08:02.002Z,8.80
2019-04-21T12:09:03.042Z,9.40
2019-04-21T12:10:01.644Z,8.70
2019-04-21T12:11:00.991Z,9.20
2019-04-21T12:12:01.264Z,8.90
2019-04-21T12:13:01.393Z,9.60
2019-04-21T12:14:00.945Z,8.80
2019-04-21T12:15:01.955Z,9.50
2019-04-21T12:16:01.077Z,9.00
2019-04-21T12:17:01.126Z,9.10
2019-04-21T12:18:01.737Z,9.40
2019-04-21T12:19:01.066Z,9.10
2019-04-21T12:20:01.071Z,8.70
2019-04-21T12:22:10.984Z,9.30
2019-04-21T12:23:02.488Z,10.30
2019-04-21T12:24:00.868Z,9.10
2019-04-21T12:25:00.967Z,9.30
2019-04-21T12:26:01.258Z,9.30
2019-04-21T12:27:02.166Z,8.90
2019-04-21T12:28:01.733Z,9.10
2019-04-21T12:29:01.815Z,8.70
2019-04-21T12:30:02.087Z,8.50
2019-04-21T12:31:00.756Z,9.30
2019-04-21T12:32:01.393Z,8.70
2019-04-21T12:33:02.105Z,8.80
2019-04-21T12:34:00.783Z,9.00
2019-04-21T12:35:01.788Z,8.80
2019-04-21T12:36:01.834Z,8.60
2019-04-21T12:37:01.203Z,8.70
2019-04-21T12:38:00.722Z,8.40
2019-04-21T12:39:03.309Z,8.60
2019-04-21T12:40:00.879Z,8.40
2019-04-21T12:41:00.733Z,8.80
2019-04-21T12:42:00.654Z,8.10
2019-04-21T12:43:00.962Z,9.70
2019-04-21T12:44:00.692Z,9.00
2019-04-21T12:45:01.400Z,8.40
2019-04-21T12:46:00.606Z,8.20
2019-04-21T12:47:01.690Z,8.60
2019-04-21T12:48:01.862Z,8.10
2019-04-21T12:49:02.039Z,8.80
2019-04-21T12:50:02.768Z,9.00
2019-04-21T12:51:01.839Z,8.20
2019-04-21T12:53:01.591Z,8.80
2019-04-21T12:54:01.638Z,8.90
2019-04-21T12:55:01.690Z,8.60
2019-04-21T12:56:01.995Z,8.00
2019-04-21T12:57:01.238Z,9.00
2019-04-21T12:58:01.423Z,8.30
2019-04-21T12:59:01.552Z,9.00
2019-04-21T13:00:00.663Z,8.70
2019-04-21T13:01:00.920Z,8.70
2019-04-21T13:02:01.066Z,8.70
2019-04-21T13:03:01.640Z,8.80
2019-04-21T13:04:01.737Z,8.90
2019-04-21T13:05:01.964Z,8.30
2019-04-21T13:06:01.395Z,8.90
2019-04-21T13:07:01.478Z,8.40
2019-04-21T13:08:01.530Z,7.90
2019-04-21T13:09:05.256Z,7.80
2019-04-21T13:10:02.359Z,8.80
2019-04-21T13:11:00.367Z,8.20
2019-04-21T13:12:01.444Z,8.10
2019-04-21T13:13:01.502Z,8.40
2019-04-21T13:14:00.305Z,8.20
2019-04-21T13:15:02.497Z,7.70
2019-04-21T13:16:01.172Z,7.00
2019-04-21T13:17:01.375Z,7.50
2019-04-21T13:18:00.560Z,7.50
2019-04-21T13:20:01.361Z,7.30
2019-04-21T13:21:02.159Z,7.40
2019-04-21T13:22:01.448Z,6.90
2019-04-21T13:23:00.249Z,8.00
2019-04-21T13:24:01.000Z,7.10
2019-04-21T13:25:00.236Z,7.70
2019-04-21T13:26:03.078Z,7.90
2019-04-21T13:27:03.156Z,7.80
2019-04-21T13:28:00.924Z,8.10
2019-04-21T13:29:00.497Z,8.20
2019-04-21T13:30:00.214Z,8.30
2019-04-21T13:31:00.325Z,7.40
2019-04-21T13:32:01.224Z,7.40
2019-04-21T13:33:00.825Z,8.20
2019-04-21T13:34:00.236Z,8.00
2019-04-21T13:35:01.193Z,7.10
2019-04-21T13:36:00.091Z,6.70
2019-04-21T13:38:02.517Z,7.30
2019-04-21T13:39:32.496Z,7.10
2019-04-21T13:40:21.115Z,7.30
2019-04-21T13:41:17.500Z,8.00
2019-04-21T13:42:11.083Z,7.40
2019-04-21T13:43:04.089Z,7.50
2019-04-21T13:44:01.269Z,7.20
2019-04-21T13:45:02.459Z,7.50
2019-04-21T13:46:00.020Z,7.40
2019-04-21T13:47:00.787Z,7.50
2019-04-21T13:48:01.011Z,7.40
2019-04-21T13:49:01.192Z,7.20
2019-04-21T13:50:02.924Z,7.10
2019-04-21T13:51:00.001Z,7.00
2019-04-21T13:52:00.565Z,6.40
2019-04-21T13:54:01.945Z,7.00
2019-04-21T13:55:01.145Z,7.30
2019-04-21T13:56:00.409Z,7.60
2019-04-21T13:57:00.680Z,8.10
2019-04-21T13:57:59.841Z,7.70
2019-04-21T13:59:00.142Z,7.10
2019-04-21T14:00:01.282Z,8.00
2019-04-21T14:01:00.019Z,8.00
2019-04-21T14:02:00.514Z,7.70
2019-04-21T14:03:00.825Z,7.50
2019-04-21T14:03:59.759Z,7.30
2019-04-21T14:05:01.116Z,6.70
2019-04-21T14:06:00.309Z,7.20
2019-04-21T14:07:00.549Z,6.60
2019-04-21T14:08:01.002Z,7.20
2019-04-21T14:09:01.053Z,7.10
2019-04-21T14:10:04.769Z,6.80
2019-04-21T14:11:01.736Z,7.00
2019-04-21T14:11:59.701Z,6.60
2019-04-21T14:13:00.463Z,6.90
2019-04-21T14:14:00.596Z,6.60
2019-04-21T14:15:00.110Z,7.10
2019-04-21T14:15:59.944Z,7.00
2019-04-21T14:17:00.499Z,7.10
2019-04-21T14:18:00.548Z,7.10
2019-04-21T14:18:59.624Z,6.80
2019-04-21T14:19:59.602Z,6.20
2019-04-21T14:21:00.920Z,7.00
2019-04-21T14:21:59.579Z,6.80
2019-04-21T14:23:13.666Z,7.80
2019-04-21T14:24:01.256Z,7.30
2019-04-21T14:24:59.798Z,7.00
2019-04-21T14:25:59.729Z,7.30
2019-04-21T14:27:00.534Z,7.00
2019-04-21T14:27:59.857Z,7.60
2019-04-21T14:28:59.504Z,7.10
2019-04-21T14:30:00.630Z,7.30